Hinsdale, Illinois
Current Conditions -  °F | °C
As of 9:53 AM on Friday 31 Oct 2014 (Local Time) from KMDW Reporting Station
Broken Clouds Broken Clouds  
Wind Chill: 29°   Ceiling: 4100
Heat Index: 40°   Visibility: 10mi
Dew Point: 27°   Wind: 29mph
Humidity: 60%   Direction: 350°N
Pressure: 30.1"   Gusts: 46mph
Location:  41.8°N, 87.93°W
Report Text: KMDW 311453Z 35025G40KT 10SM FEW030 BKN041 BKN090 04/M03 A3010 RMK AO2 PK WND 35040/1449 SLP200 60000 T00441028 50003
Loading
Personal Weather Stations






























Interactive Weather Map
Tropical Storm Tracking
New forecast layout! Learn more

10-Day Weather Forecast

Advertisements
Track Severe Weather on mobile